sensor_id;sensor_type;location;lat;lon;timestamp;P1;durP1;ratioP1;P2;durP2;ratioP2
54384;SDS011;40284;52.878;5.998;2023-06-22T00:00:48;33.85;;;28.48;;
54384;SDS011;40284;52.878;5.998;2023-06-22T00:03:14;33.55;;;27.42;;
54384;SDS011;40284;52.878;5.998;2023-06-22T00:05:40;34.47;;;27.95;;
54384;SDS011;40284;52.878;5.998;2023-06-22T00:08:06;32.15;;;26.25;;
54384;SDS011;40284;52.878;5.998;2023-06-22T00:10:32;32.97;;;27.38;;
54384;SDS011;40284;52.878;5.998;2023-06-22T00:12:58;30.73;;;27.52;;
54384;SDS011;40284;52.878;5.998;2023-06-22T00:15:24;33.90;;;28.65;;
54384;SDS011;40284;52.878;5.998;2023-06-22T00:17:50;37.10;;;26.95;;
54384;SDS011;40284;52.878;5.998;2023-06-22T00:20:17;34.00;;;26.92;;
54384;SDS011;40284;52.878;5.998;2023-06-22T00:22:45;34.67;;;27.13;;
54384;SDS011;40284;52.878;5.998;2023-06-22T00:25:12;30.10;;;26.35;;
54384;SDS011;40284;52.878;5.998;2023-06-22T00:27:39;32.35;;;25.63;;
54384;SDS011;40284;52.878;5.998;2023-06-22T00:30:05;33.17;;;26.50;;
54384;SDS011;40284;52.878;5.998;2023-06-22T00:32:31;28.30;;;25.17;;
54384;SDS011;40284;52.878;5.998;2023-06-22T00:34:57;29.77;;;24.17;;
54384;SDS011;40284;52.878;5.998;2023-06-22T00:37:25;28.63;;;25.58;;
54384;SDS011;40284;52.878;5.998;2023-06-22T00:39:54;29.27;;;25.02;;
54384;SDS011;40284;52.878;5.998;2023-06-22T00:42:21;31.17;;;26.55;;
54384;SDS011;40284;52.878;5.998;2023-06-22T00:44:47;27.15;;;24.15;;
54384;SDS011;40284;52.878;5.998;2023-06-22T00:47:13;31.30;;;24.67;;
54384;SDS011;40284;52.878;5.998;2023-06-22T00:49:41;31.90;;;26.55;;
54384;SDS011;40284;52.878;5.998;2023-06-22T00:52:07;28.13;;;25.02;;
54384;SDS011;40284;52.878;5.998;2023-06-22T00:54:37;28.77;;;25.55;;
54384;SDS011;40284;52.878;5.998;2023-06-22T00:57:02;31.23;;;26.10;;
54384;SDS011;40284;52.878;5.998;2023-06-22T00:59:29;33.22;;;26.52;;
54384;SDS011;40284;52.878;5.998;2023-06-22T01:01:55;30.65;;;24.20;;
54384;SDS011;40284;52.878;5.998;2023-06-22T01:04:24;29.73;;;26.02;;
54384;SDS011;40284;52.878;5.998;2023-06-22T01:09:31;32.20;;;27.63;;
54384;SDS011;40284;52.878;5.998;2023-06-22T01:12:00;29.65;;;26.27;;
54384;SDS011;40284;52.878;5.998;2023-06-22T01:14:33;32.38;;;28.05;;
54384;SDS011;40284;52.878;5.998;2023-06-22T01:17:03;28.17;;;24.35;;
54384;SDS011;40284;52.878;5.998;2023-06-22T01:19:44;32.95;;;27.75;;
54384;SDS011;40284;52.878;5.998;2023-06-22T01:22:15;32.50;;;26.90;;
54384;SDS011;40284;52.878;5.998;2023-06-22T01:24:51;32.67;;;27.20;;
54384;SDS011;40284;52.878;5.998;2023-06-22T01:29:51;28.73;;;25.83;;
54384;SDS011;40284;52.878;5.998;2023-06-22T01:32:18;29.55;;;26.65;;
54384;SDS011;40284;52.878;5.998;2023-06-22T01:34:44;28.60;;;25.33;;
54384;SDS011;40284;52.878;5.998;2023-06-22T01:37:12;29.85;;;26.65;;
54384;SDS011;40284;52.878;5.998;2023-06-22T01:39:38;28.55;;;25.30;;
54384;SDS011;40284;52.878;5.998;2023-06-22T01:42:05;30.38;;;27.13;;
54384;SDS011;40284;52.878;5.998;2023-06-22T01:44:31;29.48;;;26.45;;
54384;SDS011;40284;52.878;5.998;2023-06-22T01:46:58;31.67;;;27.90;;
54384;SDS011;40284;52.878;5.998;2023-06-22T01:49:24;28.92;;;25.75;;
54384;SDS011;40284;52.878;5.998;2023-06-22T01:51:50;28.83;;;25.50;;
54384;SDS011;40284;52.878;5.998;2023-06-22T01:54:16;29.08;;;25.30;;
54384;SDS011;40284;52.878;5.998;2023-06-22T01:56:42;27.27;;;24.33;;
54384;SDS011;40284;52.878;5.998;2023-06-22T01:59:13;28.05;;;25.10;;
54384;SDS011;40284;52.878;5.998;2023-06-22T02:04:44;27.75;;;23.50;;
54384;SDS011;40284;52.878;5.998;2023-06-22T02:07:13;27.42;;;24.00;;
54384;SDS011;40284;52.878;5.998;2023-06-22T02:09:42;27.52;;;24.83;;
54384;SDS011;40284;52.878;5.998;2023-06-22T02:12:10;27.55;;;24.65;;
54384;SDS011;40284;52.878;5.998;2023-06-22T02:14:37;25.92;;;23.23;;
54384;SDS011;40284;52.878;5.998;2023-06-22T02:17:03;27.10;;;24.27;;
54384;SDS011;40284;52.878;5.998;2023-06-22T02:19:35;29.65;;;26.67;;
54384;SDS011;40284;52.878;5.998;2023-06-22T02:22:01;30.48;;;27.27;;
54384;SDS011;40284;52.878;5.998;2023-06-22T02:24:27;28.80;;;25.60;;
54384;SDS011;40284;52.878;5.998;2023-06-22T02:26:57;29.63;;;26.67;;
54384;SDS011;40284;52.878;5.998;2023-06-22T02:29:23;28.77;;;25.88;;
54384;SDS011;40284;52.878;5.998;2023-06-22T02:31:49;33.58;;;27.05;;
54384;SDS011;40284;52.878;5.998;2023-06-22T02:34:15;27.38;;;24.50;;
54384;SDS011;40284;52.878;5.998;2023-06-22T02:36:46;29.13;;;26.17;;
54384;SDS011;40284;52.878;5.998;2023-06-22T02:39:17;28.75;;;24.23;;
54384;SDS011;40284;52.878;5.998;2023-06-22T02:41:43;27.45;;;24.77;;
54384;SDS011;40284;52.878;5.998;2023-06-22T02:44:09;32.33;;;28.02;;
54384;SDS011;40284;52.878;5.998;2023-06-22T02:46:35;28.55;;;25.55;;
54384;SDS011;40284;52.878;5.998;2023-06-22T02:49:02;28.70;;;24.88;;
54384;SDS011;40284;52.878;5.998;2023-06-22T02:51:28;28.45;;;25.65;;
54384;SDS011;40284;52.878;5.998;2023-06-22T02:53:54;28.13;;;25.20;;
54384;SDS011;40284;52.878;5.998;2023-06-22T02:56:22;30.13;;;27.10;;
54384;SDS011;40284;52.878;5.998;2023-06-22T02:58:50;30.45;;;27.42;;
54384;SDS011;40284;52.878;5.998;2023-06-22T03:01:16;32.88;;;29.48;;
54384;SDS011;40284;52.878;5.998;2023-06-22T03:03:48;35.70;;;30.08;;
54384;SDS011;40284;52.878;5.998;2023-06-22T03:06:14;32.67;;;29.48;;
54384;SDS011;40284;52.878;5.998;2023-06-22T03:08:40;33.38;;;29.45;;
54384;SDS011;40284;52.878;5.998;2023-06-22T03:11:09;31.20;;;27.42;;
54384;SDS011;40284;52.878;5.998;2023-06-22T03:13:35;32.78;;;27.52;;
54384;SDS011;40284;52.878;5.998;2023-06-22T03:16:01;31.33;;;27.98;;
54384;SDS011;40284;52.878;5.998;2023-06-22T03:18:27;33.33;;;29.80;;
54384;SDS011;40284;52.878;5.998;2023-06-22T03:20:53;32.03;;;28.65;;
54384;SDS011;40284;52.878;5.998;2023-06-22T03:23:19;33.13;;;29.27;;
54384;SDS011;40284;52.878;5.998;2023-06-22T03:25:45;33.33;;;28.92;;
54384;SDS011;40284;52.878;5.998;2023-06-22T03:28:12;32.35;;;28.95;;
54384;SDS011;40284;52.878;5.998;2023-06-22T03:30:38;36.63;;;31.27;;
54384;SDS011;40284;52.878;5.998;2023-06-22T03:33:04;31.20;;;28.05;;
54384;SDS011;40284;52.878;5.998;2023-06-22T03:35:30;32.40;;;29.02;;
54384;SDS011;40284;52.878;5.998;2023-06-22T03:37:56;28.65;;;25.63;;
54384;SDS011;40284;52.878;5.998;2023-06-22T03:40:22;30.13;;;27.23;;
54384;SDS011;40284;52.878;5.998;2023-06-22T03:42:48;30.45;;;27.35;;
54384;SDS011;40284;52.878;5.998;2023-06-22T03:45:14;28.88;;;25.98;;
54384;SDS011;40284;52.878;5.998;2023-06-22T03:47:41;29.20;;;26.10;;
54384;SDS011;40284;52.878;5.998;2023-06-22T03:50:07;29.70;;;26.75;;
54384;SDS011;40284;52.878;5.998;2023-06-22T03:52:33;29.23;;;26.13;;
54384;SDS011;40284;52.878;5.998;2023-06-22T03:54:59;28.52;;;25.65;;
54384;SDS011;40284;52.878;5.998;2023-06-22T03:57:25;26.52;;;23.67;;
54384;SDS011;40284;52.878;5.998;2023-06-22T03:59:53;26.73;;;24.02;;
54384;SDS011;40284;52.878;5.998;2023-06-22T04:02:20;26.75;;;23.83;;
54384;SDS011;40284;52.878;5.998;2023-06-22T04:04:46;26.55;;;23.95;;
54384;SDS011;40284;52.878;5.998;2023-06-22T04:07:12;24.10;;;21.80;;
54384;SDS011;40284;52.878;5.998;2023-06-22T04:09:38;23.05;;;20.77;;
54384;SDS011;40284;52.878;5.998;2023-06-22T04:12:04;25.48;;;22.88;;
54384;SDS011;40284;52.878;5.998;2023-06-22T04:14:30;23.58;;;21.23;;
54384;SDS011;40284;52.878;5.998;2023-06-22T04:16:57;25.23;;;22.63;;
54384;SDS011;40284;52.878;5.998;2023-06-22T04:19:23;24.05;;;20.70;;
54384;SDS011;40284;52.878;5.998;2023-06-22T04:21:49;22.05;;;19.85;;
54384;SDS011;40284;52.878;5.998;2023-06-22T04:24:15;25.38;;;22.60;;
54384;SDS011;40284;52.878;5.998;2023-06-22T04:26:41;24.23;;;21.65;;
54384;SDS011;40284;52.878;5.998;2023-06-22T04:29:10;24.52;;;21.35;;
54384;SDS011;40284;52.878;5.998;2023-06-22T04:31:36;30.25;;;24.85;;
54384;SDS011;40284;52.878;5.998;2023-06-22T04:34:03;25.48;;;22.95;;
54384;SDS011;40284;52.878;5.998;2023-06-22T04:36:34;25.83;;;23.13;;
54384;SDS011;40284;52.878;5.998;2023-06-22T04:39:07;25.20;;;22.48;;
54384;SDS011;40284;52.878;5.998;2023-06-22T04:41:35;26.30;;;23.45;;
54384;SDS011;40284;52.878;5.998;2023-06-22T04:44:14;28.52;;;24.88;;
54384;SDS011;40284;52.878;5.998;2023-06-22T04:46:48;27.80;;;24.98;;
54384;SDS011;40284;52.878;5.998;2023-06-22T04:49:18;26.10;;;23.15;;
54384;SDS011;40284;52.878;5.998;2023-06-22T04:51:45;26.33;;;23.83;;
54384;SDS011;40284;52.878;5.998;2023-06-22T04:54:11;26.38;;;23.70;;
54384;SDS011;40284;52.878;5.998;2023-06-22T04:56:37;24.38;;;21.92;;
54384;SDS011;40284;52.878;5.998;2023-06-22T04:59:05;28.88;;;25.67;;
54384;SDS011;40284;52.878;5.998;2023-06-22T05:01:32;25.58;;;22.98;;
54384;SDS011;40284;52.878;5.998;2023-06-22T05:04:00;27.35;;;24.58;;
54384;SDS011;40284;52.878;5.998;2023-06-22T05:06:27;26.45;;;23.85;;
54384;SDS011;40284;52.878;5.998;2023-06-22T05:08:54;26.38;;;23.70;;
54384;SDS011;40284;52.878;5.998;2023-06-22T05:11:26;26.83;;;24.02;;
54384;SDS011;40284;52.878;5.998;2023-06-22T05:13:53;30.33;;;26.27;;
54384;SDS011;40284;52.878;5.998;2023-06-22T05:16:20;28.67;;;25.67;;
54384;SDS011;40284;52.878;5.998;2023-06-22T05:18:57;30.75;;;27.48;;
54384;SDS011;40284;52.878;5.998;2023-06-22T05:21:24;28.88;;;26.00;;
54384;SDS011;40284;52.878;5.998;2023-06-22T05:23:52;36.30;;;29.05;;
54384;SDS011;40284;52.878;5.998;2023-06-22T05:26:19;32.47;;;26.75;;
54384;SDS011;40284;52.878;5.998;2023-06-22T05:28:45;33.28;;;28.60;;
54384;SDS011;40284;52.878;5.998;2023-06-22T05:31:12;32.45;;;27.73;;
54384;SDS011;40284;52.878;5.998;2023-06-22T05:33:38;29.42;;;25.13;;
54384;SDS011;40284;52.878;5.998;2023-06-22T05:36:05;28.58;;;25.58;;
54384;SDS011;40284;52.878;5.998;2023-06-22T05:38:31;31.38;;;26.60;;
54384;SDS011;40284;52.878;5.998;2023-06-22T05:40:57;29.10;;;26.00;;
54384;SDS011;40284;52.878;5.998;2023-06-22T05:43:23;31.17;;;27.92;;
54384;SDS011;40284;52.878;5.998;2023-06-22T05:45:49;33.42;;;28.90;;
54384;SDS011;40284;52.878;5.998;2023-06-22T05:48:16;31.20;;;27.85;;
54384;SDS011;40284;52.878;5.998;2023-06-22T05:50:42;32.08;;;28.45;;
54384;SDS011;40284;52.878;5.998;2023-06-22T05:53:08;30.63;;;27.17;;
54384;SDS011;40284;52.878;5.998;2023-06-22T05:55:34;32.50;;;26.50;;
54384;SDS011;40284;52.878;5.998;2023-06-22T05:58:00;30.42;;;25.90;;
54384;SDS011;40284;52.878;5.998;2023-06-22T06:00:28;28.60;;;25.05;;
54384;SDS011;40284;52.878;5.998;2023-06-22T06:02:54;26.10;;;23.17;;
54384;SDS011;40284;52.878;5.998;2023-06-22T06:05:21;28.10;;;22.23;;
54384;SDS011;40284;52.878;5.998;2023-06-22T06:07:48;27.60;;;24.67;;
54384;SDS011;40284;52.878;5.998;2023-06-22T06:10:14;27.27;;;24.33;;
54384;SDS011;40284;52.878;5.998;2023-06-22T06:12:40;27.50;;;23.95;;
54384;SDS011;40284;52.878;5.998;2023-06-22T06:15:06;28.58;;;23.30;;
54384;SDS011;40284;52.878;5.998;2023-06-22T06:17:32;26.45;;;23.40;;
54384;SDS011;40284;52.878;5.998;2023-06-22T06:19:58;28.88;;;23.77;;
54384;SDS011;40284;52.878;5.998;2023-06-22T06:22:25;27.90;;;24.90;;
54384;SDS011;40284;52.878;5.998;2023-06-22T06:24:51;26.75;;;22.38;;
54384;SDS011;40284;52.878;5.998;2023-06-22T06:27:17;23.95;;;21.35;;
54384;SDS011;40284;52.878;5.998;2023-06-22T06:29:43;24.33;;;21.73;;
54384;SDS011;40284;52.878;5.998;2023-06-22T06:32:13;24.42;;;20.73;;
54384;SDS011;40284;52.878;5.998;2023-06-22T06:34:39;23.90;;;21.42;;
54384;SDS011;40284;52.878;5.998;2023-06-22T06:37:05;23.95;;;20.33;;
54384;SDS011;40284;52.878;5.998;2023-06-22T06:39:31;21.70;;;19.48;;
54384;SDS011;40284;52.878;5.998;2023-06-22T06:41:57;21.17;;;18.98;;
54384;SDS011;40284;52.878;5.998;2023-06-22T06:44:23;22.58;;;18.52;;
54384;SDS011;40284;52.878;5.998;2023-06-22T06:46:49;21.05;;;18.63;;
54384;SDS011;40284;52.878;5.998;2023-06-22T06:49:15;18.70;;;15.85;;
54384;SDS011;40284;52.878;5.998;2023-06-22T06:51:41;19.35;;;17.25;;
54384;SDS011;40284;52.878;5.998;2023-06-22T06:54:07;20.08;;;17.77;;
54384;SDS011;40284;52.878;5.998;2023-06-22T06:56:33;17.70;;;15.90;;
54384;SDS011;40284;52.878;5.998;2023-06-22T06:58:59;17.00;;;15.27;;
54384;SDS011;40284;52.878;5.998;2023-06-22T07:01:26;18.95;;;15.90;;
54384;SDS011;40284;52.878;5.998;2023-06-22T07:03:52;19.73;;;15.40;;
54384;SDS011;40284;52.878;5.998;2023-06-22T07:06:18;22.08;;;15.55;;
54384;SDS011;40284;52.878;5.998;2023-06-22T07:08:45;16.85;;;14.88;;
54384;SDS011;40284;52.878;5.998;2023-06-22T07:11:11;18.83;;;16.60;;
54384;SDS011;40284;52.878;5.998;2023-06-22T07:13:37;18.85;;;14.57;;
54384;SDS011;40284;52.878;5.998;2023-06-22T07:16:03;18.13;;;14.43;;
54384;SDS011;40284;52.878;5.998;2023-06-22T07:18:29;17.00;;;14.80;;
54384;SDS011;40284;52.878;5.998;2023-06-22T07:20:55;16.88;;;14.02;;
54384;SDS011;40284;52.878;5.998;2023-06-22T07:23:21;14.95;;;13.32;;
54384;SDS011;40284;52.878;5.998;2023-06-22T07:25:47;15.77;;;14.13;;
54384;SDS011;40284;52.878;5.998;2023-06-22T07:28:14;16.08;;;13.80;;
54384;SDS011;40284;52.878;5.998;2023-06-22T07:30:40;17.33;;;14.52;;
54384;SDS011;40284;52.878;5.998;2023-06-22T07:33:06;17.60;;;14.30;;
54384;SDS011;40284;52.878;5.998;2023-06-22T07:35:33;18.40;;;14.85;;
54384;SDS011;40284;52.878;5.998;2023-06-22T07:37:59;17.25;;;13.95;;
54384;SDS011;40284;52.878;5.998;2023-06-22T07:40:26;16.05;;;14.48;;
54384;SDS011;40284;52.878;5.998;2023-06-22T07:42:52;17.52;;;14.48;;
54384;SDS011;40284;52.878;5.998;2023-06-22T07:45:18;17.85;;;14.30;;
54384;SDS011;40284;52.878;5.998;2023-06-22T07:47:44;15.88;;;14.25;;
54384;SDS011;40284;52.878;5.998;2023-06-22T07:50:11;15.15;;;13.55;;
54384;SDS011;40284;52.878;5.998;2023-06-22T07:52:37;17.08;;;14.32;;
54384;SDS011;40284;52.878;5.998;2023-06-22T07:55:03;16.90;;;14.63;;
54384;SDS011;40284;52.878;5.998;2023-06-22T07:57:30;19.52;;;14.18;;
54384;SDS011;40284;52.878;5.998;2023-06-22T07:59:59;17.42;;;14.70;;
54384;SDS011;40284;52.878;5.998;2023-06-22T08:02:26;17.98;;;15.82;;
54384;SDS011;40284;52.878;5.998;2023-06-22T08:04:52;18.65;;;15.98;;
54384;SDS011;40284;52.878;5.998;2023-06-22T08:07:18;18.15;;;16.02;;
54384;SDS011;40284;52.878;5.998;2023-06-22T08:09:48;18.27;;;15.25;;
54384;SDS011;40284;52.878;5.998;2023-06-22T08:12:15;19.05;;;15.45;;
54384;SDS011;40284;52.878;5.998;2023-06-22T08:14:41;17.52;;;15.35;;
54384;SDS011;40284;52.878;5.998;2023-06-22T08:17:11;19.50;;;15.90;;
54384;SDS011;40284;52.878;5.998;2023-06-22T08:19:39;18.92;;;15.80;;
54384;SDS011;40284;52.878;5.998;2023-06-22T08:22:05;22.13;;;16.98;;
54384;SDS011;40284;52.878;5.998;2023-06-22T08:24:31;18.48;;;15.68;;
54384;SDS011;40284;52.878;5.998;2023-06-22T08:26:57;17.45;;;14.82;;
54384;SDS011;40284;52.878;5.998;2023-06-22T08:29:23;18.30;;;16.38;;
54384;SDS011;40284;52.878;5.998;2023-06-22T08:31:49;18.83;;;15.95;;
54384;SDS011;40284;52.878;5.998;2023-06-22T08:34:15;19.98;;;16.35;;
54384;SDS011;40284;52.878;5.998;2023-06-22T08:39:16;19.40;;;16.50;;
54384;SDS011;40284;52.878;5.998;2023-06-22T08:41:42;22.98;;;15.15;;
54384;SDS011;40284;52.878;5.998;2023-06-22T08:44:10;16.77;;;14.98;;
54384;SDS011;40284;52.878;5.998;2023-06-22T08:46:36;17.35;;;15.55;;
54384;SDS011;40284;52.878;5.998;2023-06-22T08:49:03;16.95;;;13.88;;
54384;SDS011;40284;52.878;5.998;2023-06-22T08:51:30;18.05;;;14.85;;
54384;SDS011;40284;52.878;5.998;2023-06-22T08:53:56;17.25;;;13.82;;
54384;SDS011;40284;52.878;5.998;2023-06-22T08:56:22;18.98;;;15.43;;
54384;SDS011;40284;52.878;5.998;2023-06-22T08:58:48;17.77;;;15.00;;
54384;SDS011;40284;52.878;5.998;2023-06-22T09:01:14;16.45;;;13.98;;
54384;SDS011;40284;52.878;5.998;2023-06-22T09:03:40;21.02;;;15.60;;
54384;SDS011;40284;52.878;5.998;2023-06-22T09:06:06;16.02;;;14.43;;
54384;SDS011;40284;52.878;5.998;2023-06-22T09:08:34;18.23;;;14.23;;
54384;SDS011;40284;52.878;5.998;2023-06-22T09:11:00;18.05;;;12.55;;
54384;SDS011;40284;52.878;5.998;2023-06-22T09:13:27;16.55;;;12.70;;
54384;SDS011;40284;52.878;5.998;2023-06-22T09:15:54;19.38;;;12.70;;
54384;SDS011;40284;52.878;5.998;2023-06-22T09:18:20;20.52;;;12.50;;
54384;SDS011;40284;52.878;5.998;2023-06-22T09:20:46;15.88;;;12.82;;
54384;SDS011;40284;52.878;5.998;2023-06-22T09:23:12;14.52;;;12.45;;
54384;SDS011;40284;52.878;5.998;2023-06-22T09:25:38;13.77;;;12.00;;
54384;SDS011;40284;52.878;5.998;2023-06-22T09:28:05;15.50;;;11.85;;
54384;SDS011;40284;52.878;5.998;2023-06-22T09:30:31;16.48;;;12.32;;
54384;SDS011;40284;52.878;5.998;2023-06-22T09:32:57;16.98;;;12.38;;
54384;SDS011;40284;52.878;5.998;2023-06-22T09:35:26;15.13;;;12.40;;
54384;SDS011;40284;52.878;5.998;2023-06-22T09:37:52;14.88;;;11.40;;
54384;SDS011;40284;52.878;5.998;2023-06-22T09:40:18;13.93;;;11.68;;
54384;SDS011;40284;52.878;5.998;2023-06-22T09:42:45;15.82;;;11.75;;
54384;SDS011;40284;52.878;5.998;2023-06-22T09:45:11;14.10;;;10.43;;
54384;SDS011;40284;52.878;5.998;2023-06-22T09:47:37;11.60;;;9.60;;
54384;SDS011;40284;52.878;5.998;2023-06-22T09:50:04;9.30;;;8.27;;
54384;SDS011;40284;52.878;5.998;2023-06-22T09:52:30;13.88;;;9.98;;
54384;SDS011;40284;52.878;5.998;2023-06-22T09:54:56;13.05;;;10.00;;
54384;SDS011;40284;52.878;5.998;2023-06-22T09:57:22;10.00;;;8.90;;
54384;SDS011;40284;52.878;5.998;2023-06-22T09:59:48;12.27;;;9.85;;
54384;SDS011;40284;52.878;5.998;2023-06-22T10:02:14;12.30;;;9.85;;
54384;SDS011;40284;52.878;5.998;2023-06-22T10:04:41;13.50;;;8.75;;
54384;SDS011;40284;52.878;5.998;2023-06-22T10:07:07;10.50;;;8.55;;
54384;SDS011;40284;52.878;5.998;2023-06-22T10:09:33;13.50;;;8.82;;
54384;SDS011;40284;52.878;5.998;2023-06-22T10:11:59;16.17;;;11.43;;
54384;SDS011;40284;52.878;5.998;2023-06-22T10:14:25;13.10;;;9.88;;
54384;SDS011;40284;52.878;5.998;2023-06-22T10:16:52;11.48;;;10.38;;
54384;SDS011;40284;52.878;5.998;2023-06-22T10:19:18;11.93;;;9.20;;
54384;SDS011;40284;52.878;5.998;2023-06-22T10:21:46;8.88;;;7.88;;
54384;SDS011;40284;52.878;5.998;2023-06-22T10:24:12;9.98;;;8.98;;
54384;SDS011;40284;52.878;5.998;2023-06-22T10:26:38;10.70;;;9.25;;
54384;SDS011;40284;52.878;5.998;2023-06-22T10:29:04;10.90;;;9.32;;
54384;SDS011;40284;52.878;5.998;2023-06-22T10:31:30;11.35;;;9.30;;
54384;SDS011;40284;52.878;5.998;2023-06-22T10:33:56;10.70;;;8.32;;
54384;SDS011;40284;52.878;5.998;2023-06-22T10:36:22;12.30;;;8.70;;
54384;SDS011;40284;52.878;5.998;2023-06-22T10:38:48;8.60;;;7.45;;
54384;SDS011;40284;52.878;5.998;2023-06-22T10:41:14;8.48;;;7.05;;
54384;SDS011;40284;52.878;5.998;2023-06-22T10:43:41;10.68;;;7.75;;
54384;SDS011;40284;52.878;5.998;2023-06-22T10:46:07;9.82;;;7.25;;
54384;SDS011;40284;52.878;5.998;2023-06-22T10:48:34;9.48;;;7.47;;
54384;SDS011;40284;52.878;5.998;2023-06-22T10:51:00;10.32;;;6.78;;
54384;SDS011;40284;52.878;5.998;2023-06-22T10:53:26;6.63;;;5.15;;
54384;SDS011;40284;52.878;5.998;2023-06-22T10:55:52;6.65;;;5.60;;
54384;SDS011;40284;52.878;5.998;2023-06-22T10:58:19;9.15;;;5.75;;
54384;SDS011;40284;52.878;5.998;2023-06-22T11:00:45;8.48;;;6.22;;
54384;SDS011;40284;52.878;5.998;2023-06-22T11:03:12;8.55;;;5.75;;
54384;SDS011;40284;52.878;5.998;2023-06-22T11:05:39;7.88;;;6.65;;
54384;SDS011;40284;52.878;5.998;2023-06-22T11:08:06;9.55;;;7.40;;
54384;SDS011;40284;52.878;5.998;2023-06-22T11:10:32;8.88;;;7.07;;
54384;SDS011;40284;52.878;5.998;2023-06-22T11:12:57;8.82;;;6.50;;
54384;SDS011;40284;52.878;5.998;2023-06-22T11:15:24;10.40;;;5.43;;
54384;SDS011;40284;52.878;5.998;2023-06-22T11:17:50;4.80;;;4.30;;
54384;SDS011;40284;52.878;5.998;2023-06-22T11:20:16;7.53;;;4.00;;
54384;SDS011;40284;52.878;5.998;2023-06-22T11:22:42;8.48;;;6.13;;
54384;SDS011;40284;52.878;5.998;2023-06-22T11:25:08;12.32;;;5.88;;
54384;SDS011;40284;52.878;5.998;2023-06-22T11:27:36;8.95;;;5.50;;
54384;SDS011;40284;52.878;5.998;2023-06-22T11:30:02;9.18;;;5.82;;
54384;SDS011;40284;52.878;5.998;2023-06-22T11:32:28;10.50;;;6.10;;
54384;SDS011;40284;52.878;5.998;2023-06-22T11:34:54;8.88;;;5.75;;
54384;SDS011;40284;52.878;5.998;2023-06-22T11:37:20;8.70;;;5.90;;
54384;SDS011;40284;52.878;5.998;2023-06-22T11:39:46;6.53;;;5.10;;
54384;SDS011;40284;52.878;5.998;2023-06-22T11:42:12;6.85;;;5.15;;
54384;SDS011;40284;52.878;5.998;2023-06-22T11:44:38;6.45;;;5.32;;
54384;SDS011;40284;52.878;5.998;2023-06-22T11:47:04;10.25;;;5.45;;
54384;SDS011;40284;52.878;5.998;2023-06-22T11:49:31;7.13;;;5.40;;
54384;SDS011;40284;52.878;5.998;2023-06-22T11:51:57;7.43;;;4.82;;
54384;SDS011;40284;52.878;5.998;2023-06-22T11:54:23;7.15;;;4.57;;
54384;SDS011;40284;52.878;5.998;2023-06-22T11:56:49;6.88;;;5.45;;
54384;SDS011;40284;52.878;5.998;2023-06-22T11:59:15;7.75;;;4.55;;
54384;SDS011;40284;52.878;5.998;2023-06-22T12:01:41;7.57;;;4.80;;
54384;SDS011;40284;52.878;5.998;2023-06-22T12:04:07;4.95;;;4.45;;
54384;SDS011;40284;52.878;5.998;2023-06-22T12:06:37;7.13;;;5.07;;
54384;SDS011;40284;52.878;5.998;2023-06-22T12:09:03;8.70;;;5.00;;
54384;SDS011;40284;52.878;5.998;2023-06-22T12:11:30;8.55;;;5.22;;
54384;SDS011;40284;52.878;5.998;2023-06-22T12:13:56;6.80;;;4.40;;
54384;SDS011;40284;52.878;5.998;2023-06-22T12:16:26;9.40;;;5.13;;
54384;SDS011;40284;52.878;5.998;2023-06-22T12:18:52;7.78;;;4.97;;
54384;SDS011;40284;52.878;5.998;2023-06-22T12:21:19;8.48;;;4.35;;
54384;SDS011;40284;52.878;5.998;2023-06-22T12:23:45;6.95;;;4.60;;
54384;SDS011;40284;52.878;5.998;2023-06-22T12:26:11;7.13;;;4.82;;
54384;SDS011;40284;52.878;5.998;2023-06-22T12:28:37;6.65;;;4.53;;
54384;SDS011;40284;52.878;5.998;2023-06-22T12:31:03;8.35;;;4.63;;
54384;SDS011;40284;52.878;5.998;2023-06-22T12:33:29;5.60;;;4.65;;
54384;SDS011;40284;52.878;5.998;2023-06-22T12:35:56;5.75;;;4.32;;
54384;SDS011;40284;52.878;5.998;2023-06-22T12:38:22;8.40;;;4.55;;
54384;SDS011;40284;52.878;5.998;2023-06-22T12:40:50;7.05;;;5.20;;
54384;SDS011;40284;52.878;5.998;2023-06-22T12:43:16;6.07;;;4.13;;
54384;SDS011;40284;52.878;5.998;2023-06-22T12:45:42;9.52;;;5.00;;
54384;SDS011;40284;52.878;5.998;2023-06-22T12:48:08;10.23;;;5.32;;
54384;SDS011;40284;52.878;5.998;2023-06-22T12:50:34;6.40;;;4.60;;
54384;SDS011;40284;52.878;5.998;2023-06-22T12:53:00;10.18;;;5.03;;
54384;SDS011;40284;52.878;5.998;2023-06-22T12:55:28;6.30;;;5.13;;
54384;SDS011;40284;52.878;5.998;2023-06-22T12:57:54;7.00;;;5.47;;
54384;SDS011;40284;52.878;5.998;2023-06-22T13:00:20;9.45;;;5.07;;
54384;SDS011;40284;52.878;5.998;2023-06-22T13:02:46;5.40;;;4.90;;
54384;SDS011;40284;52.878;5.998;2023-06-22T13:05:12;6.97;;;4.82;;
54384;SDS011;40284;52.878;5.998;2023-06-22T13:07:38;6.32;;;4.70;;
54384;SDS011;40284;52.878;5.998;2023-06-22T13:10:04;8.98;;;5.28;;
54384;SDS011;40284;52.878;5.998;2023-06-22T13:12:31;5.60;;;5.00;;
54384;SDS011;40284;52.878;5.998;2023-06-22T13:14:57;9.05;;;5.65;;
54384;SDS011;40284;52.878;5.998;2023-06-22T13:17:23;6.82;;;4.82;;
54384;SDS011;40284;52.878;5.998;2023-06-22T13:19:49;8.65;;;5.60;;
54384;SDS011;40284;52.878;5.998;2023-06-22T13:22:28;11.02;;;6.10;;
54384;SDS011;40284;52.878;5.998;2023-06-22T13:24:55;7.85;;;5.78;;
54384;SDS011;40284;52.878;5.998;2023-06-22T13:27:22;6.53;;;5.45;;
54384;SDS011;40284;52.878;5.998;2023-06-22T13:29:48;8.73;;;5.60;;
54384;SDS011;40284;52.878;5.998;2023-06-22T13:32:14;10.40;;;6.22;;
54384;SDS011;40284;52.878;5.998;2023-06-22T13:34:40;8.40;;;6.72;;
54384;SDS011;40284;52.878;5.998;2023-06-22T13:37:06;8.55;;;5.70;;
54384;SDS011;40284;52.878;5.998;2023-06-22T13:39:32;10.18;;;6.97;;
54384;SDS011;40284;52.878;5.998;2023-06-22T13:41:58;10.65;;;9.55;;
54384;SDS011;40284;52.878;5.998;2023-06-22T13:44:24;9.30;;;6.57;;
54384;SDS011;40284;52.878;5.998;2023-06-22T13:46:54;10.52;;;5.82;;
54384;SDS011;40284;52.878;5.998;2023-06-22T13:49:20;8.20;;;6.53;;
54384;SDS011;40284;52.878;5.998;2023-06-22T13:51:49;7.78;;;5.72;;
54384;SDS011;40284;52.878;5.998;2023-06-22T13:54:16;7.53;;;6.72;;
54384;SDS011;40284;52.878;5.998;2023-06-22T13:56:42;9.48;;;6.70;;
54384;SDS011;40284;52.878;5.998;2023-06-22T13:59:08;11.43;;;9.40;;
54384;SDS011;40284;52.878;5.998;2023-06-22T14:01:37;9.52;;;7.13;;
54384;SDS011;40284;52.878;5.998;2023-06-22T14:04:05;11.80;;;9.07;;
54384;SDS011;40284;52.878;5.998;2023-06-22T14:06:31;11.45;;;9.30;;
54384;SDS011;40284;52.878;5.998;2023-06-22T14:08:57;13.40;;;10.07;;
54384;SDS011;40284;52.878;5.998;2023-06-22T14:11:24;9.93;;;8.93;;
54384;SDS011;40284;52.878;5.998;2023-06-22T14:13:50;10.95;;;9.40;;
54384;SDS011;40284;52.878;5.998;2023-06-22T14:16:16;10.23;;;9.23;;
54384;SDS011;40284;52.878;5.998;2023-06-22T14:18:42;11.30;;;8.65;;
54384;SDS011;40284;52.878;5.998;2023-06-22T14:21:08;11.98;;;9.05;;
54384;SDS011;40284;52.878;5.998;2023-06-22T14:23:34;11.32;;;8.45;;
54384;SDS011;40284;52.878;5.998;2023-06-22T14:26:02;10.05;;;7.95;;
54384;SDS011;40284;52.878;5.998;2023-06-22T14:28:28;12.30;;;9.93;;
54384;SDS011;40284;52.878;5.998;2023-06-22T14:30:54;9.38;;;8.38;;
54384;SDS011;40284;52.878;5.998;2023-06-22T14:33:21;9.93;;;7.10;;
54384;SDS011;40284;52.878;5.998;2023-06-22T14:35:47;12.00;;;7.93;;